Time;durP1;ratioP1;P1;durP2;ratioP2;P2;SDS_P1;SDS_P2;PMS_P1;PMS_P2;Temp;Humidity;BMP_temperature;BMP_pressure;BME280_temperature;BME280_humidity;BME280_pressure;Samples;Min_cycle;Max_cycle;Signal;HPM_P1;HPM_P2
2022/01/06 00:00:32;;;;;;;;;16.50;13.75;;;;;6.70;60.02;101468.19;5040660;28;45420;-53
2022/01/06 00:02:58;;;;;;;;;20.50;16.25;;;;;6.70;59.93;101469.06;5040568;28;45352;-53
2022/01/06 00:05:24;;;;;;;;;12.50;12.50;;;;;6.69;59.99;101471.66;5040320;28;45477;-55
2022/01/06 00:07:49;;;;;;;;;17.50;15.75;;;;;6.69;60.30;101461.19;5040030;28;46445;-53
2022/01/06 00:10:15;;;;;;;;;14.25;13.75;;;;;6.67;59.94;101458.56;5040190;28;45396;-52
2022/01/06 00:13:06;;;;;;;;;20.00;17.25;;;;;6.66;59.74;101456.81;5022489;28;45451;-54
2022/01/06 00:25:53;;;;;;;;;23.00;16.00;;;;;6.56;60.05;101457.56;5059955;28;45343;-55
2022/01/06 00:28:19;;;;;;;;;16.50;16.00;;;;;6.58;60.26;101453.22;5041854;28;46854;-55
2022/01/06 00:30:45;;;;;;;;;17.25;14.50;;;;;6.57;60.21;101452.34;5041584;28;45272;-53
2022/01/06 00:33:11;;;;;;;;;17.00;15.50;;;;;6.55;60.26;101451.44;5042200;28;45285;-52
2022/01/06 00:35:37;;;;;;;;;22.75;20.25;;;;;6.54;60.07;101456.66;5041442;28;45555;-54
2022/01/06 00:38:05;;;;;;;;;18.75;16.25;;;;;6.53;60.25;101467.94;5030170;28;46757;-54
2022/01/06 00:40:31;;;;;;;;;20.00;20.00;;;;;6.46;60.13;101457.41;5037105;28;45673;-55
2022/01/06 00:42:56;;;;;;;;;17.00;16.75;;;;;6.52;60.18;101471.44;5034383;28;45318;-54
2022/01/06 00:45:22;;;;;;;;;21.00;16.75;;;;;6.48;60.10;101468.75;5040041;28;45352;-55
2022/01/06 00:47:47;;;;;;;;;29.25;24.25;;;;;6.47;60.24;101472.22;5041912;28;46261;-56
2022/01/06 00:50:13;;;;;;;;;25.75;20.50;;;;;6.47;60.24;101480.06;5040510;28;45262;-54
2022/01/06 00:52:38;;;;;;;;;28.75;23.75;;;;;6.43;60.08;101480.88;5030082;28;45250;-55
2022/01/06 00:55:04;;;;;;;;;29.75;22.50;;;;;6.40;60.30;101477.34;5039542;28;45205;-55
2022/01/06 00:57:30;;;;;;;;;26.50;23.75;;;;;6.41;60.07;101486.94;5021704;28;46763;-55
2022/01/06 00:59:55;;;;;;;;;30.25;27.25;;;;;6.38;60.32;101477.31;5039590;28;45828;-55
2022/01/06 01:02:21;;;;;;;;;35.25;29.00;;;;;6.36;60.11;101481.63;5048603;28;45154;-53
2022/01/06 01:04:47;;;;;;;;;30.25;28.00;;;;;6.32;60.23;101478.09;5034853;28;45350;-55
2022/01/06 01:07:13;;;;;;;;;25.00;23.25;;;;;6.30;60.14;101494.59;5050337;28;45580;-54
2022/01/06 01:09:39;;;;;;;;;33.50;27.50;;;;;6.25;60.29;101491.94;5041263;28;45333;-55
2022/01/06 01:12:05;;;;;;;;;33.50;28.25;;;;;6.22;60.40;101488.38;5041613;28;45332;-54
2022/01/06 01:14:33;;;;;;;;;29.50;28.00;;;;;6.17;60.22;101489.16;5041385;28;46266;-52
2022/01/06 01:17:02;;;;;;;;;33.50;28.00;;;;;6.16;60.30;101492.66;5059598;28;45570;-55
2022/01/06 01:19:29;;;;;;;;;35.00;32.00;;;;;6.14;60.34;101499.56;5041189;28;45343;-54
2022/01/06 01:21:56;;;;;;;;;34.25;29.25;;;;;6.11;60.35;101498.63;5059692;28;45331;-55
2022/01/06 01:24:23;;;;;;;;;33.25;30.00;;;;;6.07;60.44;101487.28;5022270;28;45318;-55
2022/01/06 01:26:48;;;;;;;;;33.50;26.50;;;;;6.05;60.35;101488.09;5052014;28;45321;-54
2022/01/06 01:29:18;;;;;;;;;30.25;27.50;;;;;5.98;60.49;101485.38;5059341;28;45294;-54
2022/01/06 01:31:55;;;;;;;;;40.50;32.75;;;;;5.99;60.29;101486.28;5052908;28;45253;-55
2022/01/06 01:34:25;;;;;;;;;30.50;27.25;;;;;5.96;60.47;101494.00;5059467;28;45304;-53
2022/01/06 01:36:51;;;;;;;;;35.75;31.25;;;;;5.93;60.36;101493.97;5056736;28;45304;-54
2022/01/06 01:39:17;;;;;;;;;31.25;24.25;;;;;5.86;60.43;101493.88;5021362;28;45283;-54
2022/01/06 01:41:43;;;;;;;;;33.50;26.25;;;;;5.83;60.35;101493.78;5039085;28;45486;-55
2022/01/06 01:44:13;;;;;;;;;31.25;24.75;;;;;5.80;60.49;101496.38;5039316;28;45304;-55
2022/01/06 01:46:44;;;;;;;;;27.25;27.00;;;;;5.76;60.43;101497.16;5039032;28;45384;-55
2022/01/06 01:51:43;;;;;;;;;26.25;24.25;;;;;5.70;60.36;101507.50;5038801;28;45288;-55
2022/01/06 01:54:09;;;;;;;;;37.00;26.25;;;;;5.66;60.63;101516.09;5038999;28;45317;-54
2022/01/06 01:56:35;;;;;;;;;27.75;25.00;;;;;5.63;60.39;101513.44;5038800;28;45463;-51
2022/01/06 01:59:00;;;;;;;;;29.75;25.00;;;;;5.60;60.64;101514.25;5039150;28;45333;-54
2022/01/06 02:01:26;;;;;;;;;27.75;21.50;;;;;5.58;60.43;101522.91;5039232;28;45317;-55
2022/01/06 02:03:51;;;;;;;;;29.25;26.75;;;;;5.54;60.72;101525.44;5042478;28;45327;-55
2022/01/06 02:06:18;;;;;;;;;30.75;23.25;;;;;5.50;60.53;101521.03;5041720;28;47136;-56
2022/01/06 02:08:44;;;;;;;;;26.50;23.00;;;;;5.48;60.53;101522.72;5042259;28;45143;-55
2022/01/06 02:11:09;;;;;;;;;29.75;26.25;;;;;5.44;60.49;101518.28;5042244;28;45170;-54
2022/01/06 02:13:54;;;;;;;;;23.75;20.50;;;;;5.40;60.36;101511.28;5042241;28;45482;-55
2022/01/06 02:16:21;;;;;;;;;30.75;25.00;;;;;5.41;60.47;101519.97;5041835;28;46219;-53
2022/01/06 02:18:47;;;;;;;;;25.00;19.00;;;;;5.38;60.68;101518.16;5036779;28;45415;-55
2022/01/06 02:21:13;;;;;;;;;31.00;23.50;;;;;5.33;60.55;101510.28;5040496;28;45504;-55
2022/01/06 02:23:38;;;;;;;;;24.50;22.00;;;;;5.36;60.43;101519.88;5042004;28;45633;-55
2022/01/06 02:26:04;;;;;;;;;28.75;23.00;;;;;5.33;60.66;101515.50;5041835;28;45306;-52
2022/01/06 02:28:29;;;;;;;;;25.25;22.75;;;;;5.28;60.29;101517.13;5041910;28;45293;-54
2022/01/06 02:30:57;;;;;;;;;26.75;22.00;;;;;5.27;60.65;101512.75;5048477;28;45418;-55
2022/01/06 02:33:23;;;;;;;;;25.25;19.75;;;;;5.25;60.53;101510.97;5062005;28;45538;-55
2022/01/06 02:35:50;;;;;;;;;20.75;20.25;;;;;5.18;60.70;101509.97;5061943;28;46682;-54
2022/01/06 02:38:16;;;;;;;;;23.75;19.75;;;;;5.18;60.86;101509.97;5048563;28;45253;-54
2022/01/06 02:40:42;;;;;;;;;24.25;22.75;;;;;5.14;60.83;101518.56;5041598;28;45404;-54
2022/01/06 02:43:08;;;;;;;;;26.00;21.25;;;;;5.11;60.65;101516.78;5041655;28;45304;-55
2022/01/06 02:45:35;;;;;;;;;20.50;18.00;;;;;5.08;60.71;101515.84;5041741;28;45324;-58
2022/01/06 02:48:08;;;;;;;;;28.00;23.25;;;;;5.03;61.00;101521.84;5041604;28;45247;-56
2022/01/06 02:50:34;;;;;;;;;29.75;24.50;;;;;4.98;60.63;101514.75;5023519;28;45361;-55
2022/01/06 02:53:00;;;;;;;;;23.50;23.25;;;;;4.98;60.79;101519.97;5041723;28;45351;-54
2022/01/06 02:55:25;;;;;;;;;34.25;26.00;;;;;4.96;60.76;101524.28;5041341;28;46101;-55
2022/01/06 02:57:50;;;;;;;;;20.00;18.25;;;;;4.92;60.98;101525.94;5041521;28;45780;-55
2022/01/06 03:00:17;;;;;;;;;27.75;23.25;;;;;4.91;60.69;101524.16;5041563;28;45316;-54
2022/01/06 03:02:45;;;;;;;;;32.25;25.50;;;;;4.87;60.84;101524.97;5041278;28;45518;-56
2022/01/06 03:05:12;;;;;;;;;24.50;22.75;;;;;4.83;60.85;101529.22;5041027;28;46322;-56
2022/01/06 03:07:38;;;;;;;;;27.50;24.00;;;;;4.79;61.13;101531.72;5041110;28;45424;-55
2022/01/06 03:10:07;;;;;;;;;34.00;24.75;;;;;4.78;60.87;101543.88;5041214;28;45494;-56
2022/01/06 03:12:39;;;;;;;;;29.00;23.75;;;;;4.73;60.75;101535.06;5041390;28;45334;-55
2022/01/06 03:15:08;;;;;;;;;21.00;19.00;;;;;4.70;61.01;101545.41;5022522;28;47206;-56
2022/01/06 03:17:35;;;;;;;;;27.75;20.50;;;;;4.69;61.07;101549.75;5041206;28;45233;-56
2022/01/06 03:20:02;;;;;;;;;24.00;20.00;;;;;4.66;60.67;101551.38;5041213;28;45439;-55
2022/01/06 03:22:28;;;;;;;;;23.25;19.50;;;;;4.66;60.91;101556.59;5040836;28;45427;-56
2022/01/06 03:24:53;;;;;;;;;27.25;22.75;;;;;4.62;60.99;101554.78;5040875;28;45233;-56
2022/01/06 03:27:18;;;;;;;;;23.00;18.50;;;;;4.61;60.90;101555.63;5023010;28;45310;-54
2022/01/06 03:29:44;;;;;;;;;18.50;17.75;;;;;4.59;60.79;101566.00;5041118;28;45470;-54
2022/01/06 03:32:09;;;;;;;;;20.00;16.50;;;;;4.59;60.84;101570.31;5057739;28;45248;-56
2022/01/06 03:34:36;;;;;;;;;20.50;18.25;;;;;4.58;61.08;101566.84;5061104;28;46145;-55
2022/01/06 03:37:03;;;;;;;;;22.75;19.75;;;;;4.58;61.06;101568.53;5057530;28;45278;-55
2022/01/06 03:39:28;;;;;;;;;21.50;18.75;;;;;4.58;60.84;101558.13;5040723;28;45479;-55
2022/01/06 03:41:54;;;;;;;;;15.50;12.00;;;;;4.59;61.23;101562.50;5040793;28;45378;-55
2022/01/06 03:44:19;;;;;;;;;23.00;22.00;;;;;4.61;60.88;101564.28;5040805;28;45983;-55
2022/01/06 03:46:44;;;;;;;;;22.25;20.00;;;;;4.62;60.99;101568.66;5040731;28;45249;-54
2022/01/06 03:49:10;;;;;;;;;19.25;17.50;;;;;4.61;61.03;101560.81;5040877;28;45230;-55
2022/01/06 03:51:35;;;;;;;;;24.25;19.25;;;;;4.65;61.01;101573.94;5040388;28;45214;-56
2022/01/06 03:54:01;;;;;;;;;16.00;16.00;;;;;4.67;61.44;101574.00;5040557;28;45274;-55
2022/01/06 03:56:26;;;;;;;;;20.00;15.25;;;;;4.68;61.18;101570.53;5040614;28;45302;-55
2022/01/06 03:58:51;;;;;;;;;17.25;16.50;;;;;4.69;61.14;101569.69;5040819;28;45155;-55
2022/01/06 04:01:17;;;;;;;;;17.00;14.25;;;;;4.70;61.32;101561.03;5040606;28;45463;-55
2022/01/06 04:03:44;;;;;;;;;20.00;17.75;;;;;4.73;61.30;101571.53;5040468;28;46863;-54
2022/01/06 04:06:10;;;;;;;;;21.00;17.50;;;;;4.75;61.38;101569.81;5040024;28;45506;-55
2022/01/06 04:08:36;;;;;;;;;22.25;19.75;;;;;4.76;61.22;101566.38;5040477;28;45514;-55
2022/01/06 04:11:03;;;;;;;;;25.00;21.50;;;;;4.79;60.87;101561.25;5040158;28;45311;-56
2022/01/06 04:13:29;;;;;;;;;16.75;13.75;;;;;4.82;61.36;101561.31;5040336;28;45253;-55
2022/01/06 04:15:55;;;;;;;;;24.00;18.00;;;;;4.84;61.36;101572.66;5040150;28;45333;-55
2022/01/06 04:18:20;;;;;;;;;18.50;18.00;;;;;4.86;61.26;101565.72;5040589;28;45471;-56
2022/01/06 04:20:45;;;;;;;;;23.50;18.50;;;;;4.89;61.63;101577.94;5040013;28;45364;-55
2022/01/06 04:23:11;;;;;;;;;17.25;16.75;;;;;4.87;61.60;101577.06;5040302;28;46070;-55
2022/01/06 04:25:36;;;;;;;;;23.50;21.50;;;;;4.90;61.53;101579.72;5039564;28;45285;-55
2022/01/06 04:28:02;;;;;;;;;22.00;21.50;;;;;4.91;61.76;101578.00;5040352;28;45194;-55
2022/01/06 04:30:27;;;;;;;;;26.50;22.25;;;;;4.90;61.46;101579.72;5042702;28;45475;-54
2022/01/06 04:32:52;;;;;;;;;22.00;20.00;;;;;4.93;61.56;101578.91;5060245;28;46225;-55
2022/01/06 04:35:18;;;;;;;;;22.75;19.25;;;;;4.96;61.41;101586.81;5041890;28;45444;-54
2022/01/06 04:37:43;;;;;;;;;23.75;19.25;;;;;4.97;61.62;101580.72;5050995;28;45313;-55
2022/01/06 04:40:09;;;;;;;;;25.00;16.75;;;;;4.97;61.73;101570.31;5039808;28;45465;-55
2022/01/06 04:42:35;;;;;;;;;23.00;19.00;;;;;4.98;61.54;101572.06;5040011;28;45345;-55
2022/01/06 04:45:00;;;;;;;;;19.50;15.00;;;;;4.99;61.47;101584.25;5039795;28;45326;-54
2022/01/06 04:47:26;;;;;;;;;22.50;17.75;;;;;4.99;61.50;101579.94;5039944;28;45407;-55
2022/01/06 04:49:51;;;;;;;;;23.25;19.25;;;;;5.01;61.75;101578.22;5039645;28;45321;-54
2022/01/06 04:52:16;;;;;;;;;22.00;15.75;;;;;5.03;61.64;101580.84;5039608;28;45445;-55
2022/01/06 04:54:42;;;;;;;;;42.50;36.25;;;;;5.05;61.53;101580.03;5039762;28;45377;-55
2022/01/06 04:57:07;;;;;;;;;23.25;18.50;;;;;5.06;61.46;101583.53;5039982;28;45459;-55
2022/01/06 04:59:33;;;;;;;;;24.00;20.50;;;;;5.03;61.57;101580.84;5039692;28;45376;-54
2022/01/06 05:01:58;;;;;;;;;22.50;18.00;;;;;5.07;61.66;101582.72;5021823;28;47153;-54
2022/01/06 05:04:24;;;;;;;;;19.75;18.50;;;;;5.08;61.58;101584.47;5039573;28;45165;-55
2022/01/06 05:06:51;;;;;;;;;25.25;22.50;;;;;5.08;61.50;101584.47;5039512;28;45297;-54
2022/01/06 05:09:16;;;;;;;;;20.75;17.00;;;;;5.10;61.59;101592.31;5039274;28;45200;-55
2022/01/06 05:11:42;;;;;;;;;23.75;20.00;;;;;5.09;61.45;101588.81;5039644;28;45158;-55
2022/01/06 05:14:07;;;;;;;;;18.75;15.50;;;;;5.09;61.43;101588.81;5039484;28;45174;-55
2022/01/06 05:16:33;;;;;;;;;23.75;18.50;;;;;5.11;61.56;101599.28;5039898;28;45670;-56
2022/01/06 05:18:58;;;;;;;;;24.50;21.25;;;;;5.11;61.33;101589.72;5039573;28;45552;-55
2022/01/06 05:21:23;;;;;;;;;27.50;23.75;;;;;5.09;61.78;101598.38;5039248;28;45436;-55
2022/01/06 05:23:50;;;;;;;;;21.75;18.50;;;;;5.08;61.49;101601.81;5039217;28;45343;-56
2022/01/06 05:26:15;;;;;;;;;24.75;23.50;;;;;5.04;61.08;101606.06;5039579;28;45449;-56
2022/01/06 05:28:41;;;;;;;;;24.50;20.75;;;;;5.03;61.33;101599.09;5039263;28;45515;-55
2022/01/06 05:31:06;;;;;;;;;23.75;17.75;;;;;5.02;61.91;101605.19;5047449;28;45923;-55
2022/01/06 05:33:32;;;;;;;;;23.25;19.00;;;;;4.98;61.74;101604.22;5059283;28;45355;-55
2022/01/06 05:35:57;;;;;;;;;27.75;21.25;;;;;4.95;61.61;101605.88;5059480;28;45420;-54
2022/01/06 05:38:22;;;;;;;;;24.75;21.25;;;;;4.96;61.68;101605.91;5048086;28;45526;-54
2022/01/06 05:40:48;;;;;;;;;18.25;17.25;;;;;4.95;61.54;101606.75;5042753;28;45986;-55
2022/01/06 05:43:14;;;;;;;;;22.50;20.25;;;;;4.95;61.63;101613.69;5042746;28;45268;-55
2022/01/06 05:45:39;;;;;;;;;24.75;19.75;;;;;4.92;61.67;101611.00;5042973;28;45162;-55
2022/01/06 05:48:05;;;;;;;;;23.00;20.25;;;;;4.89;61.63;101606.59;5042535;28;45543;-56
2022/01/06 05:50:30;;;;;;;;;20.25;20.25;;;;;4.88;61.47;101613.53;5042612;28;45141;-53
2022/01/06 05:52:55;;;;;;;;;23.25;22.25;;;;;4.84;61.48;101613.44;5042443;28;45255;-54
2022/01/06 05:55:22;;;;;;;;;26.25;22.75;;;;;4.84;61.57;101629.97;5042846;28;45211;-53
2022/01/06 05:57:50;;;;;;;;;21.50;18.25;;;;;4.83;61.56;101624.69;5042575;28;45344;-54
2022/01/06 06:00:16;;;;;;;;;26.25;24.75;;;;;4.79;61.71;101625.47;5042369;28;45328;-54
2022/01/06 06:02:41;;;;;;;;;26.50;23.50;;;;;4.79;61.33;101618.56;5042398;28;45304;-54
2022/01/06 06:05:06;;;;;;;;;23.75;19.00;;;;;4.77;61.56;101620.22;5042261;28;45383;-53
2022/01/06 06:07:32;;;;;;;;;40.75;34.00;;;;;4.76;61.69;101631.47;5042040;28;45433;-55
2022/01/06 06:09:57;;;;;;;;;46.75;39.25;;;;;4.75;61.31;101629.72;5042079;28;45334;-53
2022/01/06 06:12:22;;;;;;;;;35.50;33.00;;;;;4.74;61.56;101627.94;5042114;28;45248;-55
2022/01/06 06:14:48;;;;;;;;;22.00;16.75;;;;;4.75;61.45;101634.94;5024434;28;45281;-56
2022/01/06 06:17:13;;;;;;;;;22.75;22.75;;;;;4.72;61.47;101633.13;5042230;28;45233;-56
2022/01/06 06:19:39;;;;;;;;;22.25;20.50;;;;;4.69;61.52;101627.88;5042030;28;45999;-54
2022/01/06 06:22:05;;;;;;;;;19.75;19.50;;;;;4.72;61.66;101637.47;5041858;28;45159;-53
2022/01/06 06:24:30;;;;;;;;;22.50;21.00;;;;;4.71;61.71;101639.19;5042361;28;45218;-54
2022/01/06 06:26:56;;;;;;;;;26.00;23.50;;;;;4.72;61.53;101637.47;5041967;28;45535;-53
2022/01/06 06:29:21;;;;;;;;;28.75;26.75;;;;;4.72;61.61;101645.28;5041753;28;45464;-56
2022/01/06 06:31:47;;;;;;;;;20.25;19.00;;;;;4.72;61.59;101653.97;5055631;28;45272;-54
2022/01/06 06:34:12;;;;;;;;;26.75;23.75;;;;;4.72;61.47;101653.09;5062184;28;45232;-56
2022/01/06 06:36:38;;;;;;;;;24.50;19.00;;;;;4.71;61.88;101649.59;5061668;28;45564;-55
2022/01/06 06:39:04;;;;;;;;;22.75;20.75;;;;;4.72;61.62;101658.31;5041887;28;45373;-57
2022/01/06 06:41:30;;;;;;;;;23.00;23.00;;;;;4.71;61.77;101659.13;5041683;28;45376;-56
2022/01/06 06:43:55;;;;;;;;;27.00;25.25;;;;;4.72;61.98;101664.38;5042003;28;45361;-56
2022/01/06 06:46:21;;;;;;;;;30.50;24.75;;;;;4.71;61.77;101669.56;5041763;28;45399;-55
2022/01/06 06:48:47;;;;;;;;;23.00;20.00;;;;;4.72;61.70;101674.78;5041463;28;47822;-55
2022/01/06 06:51:13;;;;;;;;;23.00;21.50;;;;;4.71;62.00;101664.34;5023417;28;45257;-55
2022/01/06 06:53:40;;;;;;;;;32.25;26.25;;;;;4.70;61.80;101673.00;5037316;28;45305;-55
2022/01/06 06:56:05;;;;;;;;;29.00;22.25;;;;;4.74;61.81;101674.81;5041461;28;45472;-55
2022/01/06 06:58:31;;;;;;;;;23.00;21.50;;;;;4.74;61.91;101664.41;5041481;28;46240;-55
2022/01/06 07:00:56;;;;;;;;;28.75;25.00;;;;;4.72;62.03;101671.31;5041452;28;45249;-56
2022/01/06 07:03:22;;;;;;;;;25.50;23.50;;;;;4.76;62.17;101670.53;5041424;28;45589;-57
2022/01/06 07:05:47;;;;;;;;;24.25;22.50;;;;;4.75;61.99;101660.97;5041112;28;45212;-56
2022/01/06 07:08:12;;;;;;;;;25.75;22.75;;;;;4.81;62.03;101668.94;5041221;28;45159;-56
2022/01/06 07:10:38;;;;;;;;;32.00;27.50;;;;;4.82;61.77;101670.69;5041425;28;45361;-56
2022/01/06 07:13:03;;;;;;;;;27.75;23.75;;;;;4.84;61.90;101678.53;5041375;28;45419;-55
2022/01/06 07:15:28;;;;;;;;;28.25;25.50;;;;;4.87;61.92;101689.06;5041368;28;45534;-56
2022/01/06 07:17:54;;;;;;;;;32.25;26.00;;;;;4.87;62.18;101687.31;5041034;28;46163;-55
2022/01/06 07:20:19;;;;;;;;;32.00;27.75;;;;;4.89;62.17;101689.94;5041163;28;45366;-55
2022/01/06 07:22:44;;;;;;;;;37.50;27.75;;;;;4.91;62.14;101683.06;5041224;28;45280;-56
2022/01/06 07:25:10;;;;;;;;;27.50;24.50;;;;;4.92;62.24;101681.34;5041089;28;45322;-56
2022/01/06 07:27:35;;;;;;;;;30.75;26.00;;;;;4.94;62.10;101680.53;5040800;28;47059;-55
2022/01/06 07:30:01;;;;;;;;;30.50;29.00;;;;;4.96;62.10;101678.84;5023022;28;45242;-56
2022/01/06 07:32:26;;;;;;;;;26.50;22.00;;;;;4.98;62.25;101687.59;5060388;28;45340;-56
2022/01/06 07:34:52;;;;;;;;;31.50;27.75;;;;;5.01;62.28;101687.66;5043012;28;45306;-56
2022/01/06 07:37:17;;;;;;;;;33.75;28.00;;;;;5.01;62.29;101682.44;5055185;28;46078;-56
2022/01/06 07:39:42;;;;;;;;;31.50;30.25;;;;;5.06;62.36;101687.78;5022783;28;45339;-56
2022/01/06 07:42:08;;;;;;;;;32.25;28.50;;;;;5.07;62.36;101689.53;5040916;28;45289;-55
2022/01/06 07:44:34;;;;;;;;;30.75;26.00;;;;;5.07;62.18;101689.53;5040930;28;45550;-55
2022/01/06 07:47:00;;;;;;;;;30.75;25.25;;;;;5.10;62.34;101689.59;5040631;28;45166;-55
2022/01/06 07:49:26;;;;;;;;;25.25;24.00;;;;;5.12;62.27;101697.44;5022742;28;45298;-55
2022/01/06 07:51:53;;;;;;;;;34.00;27.50;;;;;5.13;62.04;101697.50;5022755;28;45326;-55
2022/01/06 07:54:18;;;;;;;;;32.00;29.75;;;;;5.15;62.07;101702.75;5044357;28;45353;-57
2022/01/06 07:56:44;;;;;;;;;33.00;25.25;;;;;5.15;62.38;101708.81;5039110;28;47440;-56
2022/01/06 07:59:10;;;;;;;;;33.25;26.00;;;;;5.18;62.08;101714.13;5040196;28;45324;-56
2022/01/06 08:01:36;;;;;;;;;33.00;25.00;;;;;5.19;62.14;101717.59;5040617;28;45481;-56
2022/01/06 08:04:01;;;;;;;;;25.75;23.00;;;;;5.18;62.44;101708.91;5022648;28;45435;-56
2022/01/06 08:06:27;;;;;;;;;25.75;21.50;;;;;5.17;62.30;101708.84;5040095;28;45460;-56
2022/01/06 08:08:52;;;;;;;;;29.25;26.25;;;;;5.15;62.48;101706.22;5040246;28;45327;-56
2022/01/06 08:11:17;;;;;;;;;29.00;25.00;;;;;5.16;62.53;101710.59;5040503;28;45411;-55
2022/01/06 08:13:43;;;;;;;;;26.00;21.50;;;;;5.17;62.52;101709.75;5040502;28;45296;-56
2022/01/06 08:16:08;;;;;;;;;35.75;30.00;;;;;5.17;62.40;101706.25;5040167;28;45363;-56
2022/01/06 08:18:34;;;;;;;;;26.25;24.25;;;;;5.19;62.48;101715.88;5040529;28;45318;-56
2022/01/06 08:20:59;;;;;;;;;26.50;24.75;;;;;5.21;62.26;101710.69;5040044;28;45242;-56
2022/01/06 08:23:25;;;;;;;;;29.25;26.75;;;;;5.19;62.39;101705.47;5040483;28;45305;-56
2022/01/06 08:25:50;;;;;;;;;32.75;28.25;;;;;5.21;62.38;101706.34;5039863;28;47143;-56
2022/01/06 08:28:16;;;;;;;;;37.50;30.50;;;;;5.21;62.07;101708.09;5022168;28;45258;-56
2022/01/06 08:30:42;;;;;;;;;47.00;36.00;;;;;5.21;62.53;101706.34;5044769;28;45285;-56
2022/01/06 08:33:07;;;;;;;;;38.50;34.50;;;;;5.23;62.48;101705.53;5060356;28;45407;-56
2022/01/06 08:35:33;;;;;;;;;37.00;31.50;;;;;5.22;62.28;101707.25;5059731;28;46364;-55
2022/01/06 08:37:58;;;;;;;;;35.00;29.50;;;;;5.25;62.30;101720.34;5022032;28;45366;-56
2022/01/06 08:40:25;;;;;;;;;32.25;29.50;;;;;5.27;62.50;101718.66;5039808;28;45396;-58
2022/01/06 08:42:50;;;;;;;;;34.75;30.75;;;;;5.26;62.47;101713.41;5039885;28;45414;-56
2022/01/06 08:45:16;;;;;;;;;32.75;27.75;;;;;5.31;62.44;101720.50;5039518;28;46341;-55
2022/01/06 08:47:43;;;;;;;;;32.25;28.25;;;;;5.32;62.48;101718.75;5039716;28;45351;-55
2022/01/06 08:50:09;;;;;;;;;32.25;29.75;;;;;5.35;62.38;101726.66;5039557;28;45317;-56
2022/01/06 08:52:36;;;;;;;;;33.75;28.00;;;;;5.36;62.41;101725.81;5039917;28;45240;-54
2022/01/06 08:55:02;;;;;;;;;36.50;32.25;;;;;5.39;62.39;101730.22;5039338;28;45258;-56
2022/01/06 08:57:28;;;;;;;;;29.00;22.75;;;;;5.41;62.48;101729.41;5039614;28;45330;-56
2022/01/06 08:59:53;;;;;;;;;32.00;26.00;;;;;5.44;62.51;101739.91;5039648;28;45234;-56
2022/01/06 09:02:19;;;;;;;;;29.00;27.50;;;;;5.43;62.45;101735.53;5021791;28;45349;-56
2022/01/06 09:04:44;;;;;;;;;35.00;30.00;;;;;5.43;62.44;101732.91;5039585;28;46375;-54
2022/01/06 09:07:09;;;;;;;;;24.50;24.00;;;;;5.44;62.48;101733.81;5039090;28;45257;-56
2022/01/06 09:09:37;;;;;;;;;31.50;29.75;;;;;5.44;62.41;101737.28;5039404;28;45336;-56
2022/01/06 09:12:05;;;;;;;;;28.00;24.25;;;;;5.45;62.42;101739.06;5040701;28;45485;-56
2022/01/06 09:14:30;;;;;;;;;32.50;28.50;;;;;5.41;62.81;101732.03;5042929;28;46399;-56
2022/01/06 09:16:55;;;;;;;;;32.75;29.25;;;;;5.46;62.49;101739.91;5043155;28;45217;-56
2022/01/06 09:19:21;;;;;;;;;32.00;30.00;;;;;5.48;62.47;101740.84;5043173;28;45291;-55
2022/01/06 09:21:46;;;;;;;;;38.00;32.50;;;;;5.49;62.60;101743.47;5024917;28;45357;-55
2022/01/06 09:24:11;;;;;;;;;36.75;31.00;;;;;5.53;62.44;101750.56;5042671;28;45235;-55
2022/01/06 09:26:38;;;;;;;;;34.50;30.75;;;;;5.54;62.58;101747.06;5025006;28;45179;-55
2022/01/06 09:29:06;;;;;;;;;35.50;32.25;;;;;5.59;62.45;101743.72;5043017;28;45549;-55
2022/01/06 09:31:33;;;;;;;;;40.25;35.00;;;;;5.62;62.37;101748.97;5054326;28;45459;-56
2022/01/06 09:34:00;;;;;;;;;39.00;33.25;;;;;5.65;62.65;101743.84;5062709;28;45207;-55
2022/01/06 09:36:27;;;;;;;;;34.25;30.75;;;;;5.69;62.70;101749.16;5062665;28;45410;-55
2022/01/06 09:38:54;;;;;;;;;36.25;30.50;;;;;5.70;62.43;101750.03;5043836;28;45480;-55
2022/01/06 09:41:20;;;;;;;;;38.75;34.50;;;;;5.73;62.77;101752.72;5042781;28;45318;-56
2022/01/06 09:43:48;;;;;;;;;39.00;31.25;;;;;5.76;62.63;101755.41;5024439;28;47787;-56
2022/01/06 09:46:14;;;;;;;;;39.50;35.50;;;;;5.76;62.40;101752.78;5042749;28;45229;-56
2022/01/06 09:48:40;;;;;;;;;35.00;30.75;;;;;5.84;62.51;101763.38;5042426;28;45411;-55
2022/01/06 09:51:08;;;;;;;;;41.75;34.00;;;;;5.86;62.56;101765.19;5042398;28;45280;-55
2022/01/06 09:53:33;;;;;;;;;31.00;24.25;;;;;5.88;62.77;101766.94;5024516;28;47347;-54
2022/01/06 09:55:59;;;;;;;;;48.50;36.25;;;;;5.93;62.73;101765.31;5042380;28;45458;-56
2022/01/06 09:58:27;;;;;;;;;34.00;31.00;;;;;5.96;62.54;101768.88;5042503;28;45288;-55
2022/01/06 10:00:55;;;;;;;;;33.50;31.00;;;;;6.01;62.53;101771.59;5042391;28;45404;-55
2022/01/06 10:03:31;;;;;;;;;38.75;33.25;;;;;6.06;62.65;101772.56;5042407;28;45360;-55
2022/01/06 10:06:09;;;;;;;;;36.75;31.25;;;;;6.11;62.63;101773.56;5020211;28;45243;-55
2022/01/06 10:08:34;;;;;;;;;40.50;34.25;;;;;6.14;62.53;101773.63;5029992;28;45367;-57
2022/01/06 10:11:11;;;;;;;;;46.00;37.75;;;;;6.17;62.59;101778.88;5024413;28;45288;-56
2022/01/06 10:13:37;;;;;;;;;40.75;36.00;;;;;6.21;62.54;101792.03;5021178;28;45435;-55
2022/01/06 10:16:16;;;;;;;;;40.25;37.75;;;;;6.23;62.70;101779.91;5019697;28;45341;-56
2022/01/06 10:19:05;;;;;;;;;40.00;34.75;;;;;6.26;62.72;101779.94;5033459;28;45257;-57
2022/01/06 10:21:38;;;;;;;;;44.25;35.75;;;;;6.27;62.53;101782.56;5031153;28;45414;-56
2022/01/06 10:24:08;;;;;;;;;44.25;35.50;;;;;6.30;62.75;101777.44;5020468;28;46933;-55
2022/01/06 10:26:35;;;;;;;;;41.75;36.50;;;;;6.36;62.56;101773.19;5021001;28;45351;-56
2022/01/06 10:29:02;;;;;;;;;37.75;35.25;;;;;6.40;62.71;101773.28;5020957;28;45241;-55
2022/01/06 10:31:30;;;;;;;;;7.50;4.00;;;;;6.44;62.59;101771.59;5030163;28;45511;-56
2022/01/06 10:33:57;;;;;;;;;46.50;37.75;;;;;6.49;62.65;101773.44;5040535;28;46100;-56
2022/01/06 10:36:32;;;;;;;;;50.75;39.00;;;;;6.55;62.59;101769.19;5040418;28;45451;-56
2022/01/06 10:39:00;;;;;;;;;42.25;36.75;;;;;6.58;62.72;101775.34;5027103;28;45289;-56
2022/01/06 10:41:28;;;;;;;;;38.00;30.50;;;;;6.62;62.64;101778.91;5028020;28;45415;-56
2022/01/06 10:43:59;;;;;;;;;44.25;39.00;;;;;6.67;62.86;101777.25;5020447;28;46023;-56
2022/01/06 10:46:28;;;;;;;;;44.75;38.25;;;;;6.70;62.60;101769.47;5020415;28;45284;-55
2022/01/06 10:49:06;;;;;;;;;42.00;35.25;;;;;6.75;62.69;101764.34;5020545;28;45212;-55
2022/01/06 10:51:39;;;;;;;;;38.75;35.00;;;;;6.79;62.80;101768.75;5020066;28;45344;-56
2022/01/06 10:54:10;;;;;;;;;40.00;34.25;;;;;6.83;62.64;101758.38;5020089;28;46253;-54
2022/01/06 10:56:36;;;;;;;;;42.50;37.50;;;;;6.88;63.04;101758.47;5020265;28;45444;-56
2022/01/06 10:59:01;;;;;;;;;46.50;38.25;;;;;6.96;62.82;101753.38;5019180;28;45503;-56
2022/01/06 11:01:32;;;;;;;;;43.25;37.75;;;;;7.00;62.91;101749.97;5020261;28;45312;-57
2022/01/06 11:03:57;;;;;;;;;40.50;35.75;;;;;7.03;62.79;101738.66;5020286;28;47149;-56
2022/01/06 11:06:23;;;;;;;;;37.50;34.00;;;;;7.10;62.85;101751.84;4991094;28;1160800;-55
2022/01/06 11:08:51;;;;;;;;;39.25;35.75;;;;;7.15;62.80;101738.88;5041199;28;45482;-56
2022/01/06 11:11:30;;;;;;;;;42.25;36.00;;;;;7.22;62.86;101732.91;5023425;28;46339;-55
2022/01/06 11:13:55;;;;;;;;;37.75;33.25;;;;;7.25;62.69;101732.94;5041173;28;45409;-56
2022/01/06 11:16:21;;;;;;;;;44.25;35.75;;;;;7.30;62.70;101733.88;5041112;28;45361;-55
2022/01/06 11:18:53;;;;;;;;;43.25;35.25;;;;;7.35;62.62;101731.34;5041327;28;45372;-56
2022/01/06 11:21:24;;;;;;;;;38.50;33.25;;;;;7.40;62.83;101726.19;5040921;28;45352;-55
2022/01/06 11:24:04;;;;;;;;;40.50;34.50;;;;;7.47;62.81;101723.69;5040774;28;47016;-56
2022/01/06 11:26:29;;;;;;;;;44.25;34.25;;;;;7.54;62.96;101721.16;5040936;28;45357;-56